Avon, IL (61415)

9:51 AM CST on February 22, 2017 (GMT -0600)
Bushnell-Prairie City Schools | | Change Station
Active Advisory: Dense Fog Advisory

Elev 659 ft 40.56 °N, 90.51 °W | Updated 10 minutes ago

Fog
Fog
57.2 °F
Feels Like 57.2 °F
N
7.0
Wind Variable Wind from ESE
Gusts 14.0 mph

Today
High -- | Low -- °F
--% Chance of Precip.
Yesterday
High -- | Low -- °F
Precip. -- in
Pressure 29.82 in
Visibility 1.8 miles
Clouds Overcast 200 ft
Dew Point 57 °F
Humidity 98%
Rainfall 0.00 in
Snow Depth Not available.
6:45 AM 5:45 PM
Waning Crescent, 16% visible
METAR KMQB 221535Z AUTO 21011KT 1 3/4SM BR OVC002 13/13 A2982 RMK AO2 T01310131
Pressure 29.82 in
Visibility 1.8 miles
Clouds Overcast 200 ft
Dew Point 57 °F
Humidity 98%
Rainfall 0.00 in
Snow Depth Not available.
6:45 AM 5:45 PM
Waning Crescent, 16% visible
METAR KMQB 221535Z AUTO 21011KT 1 3/4SM BR OVC002 13/13 A2982 RMK AO2 T01310131

Get Your Daily Forecast Email!

Thanks for signing up!

Be on the lookout for a verification email in your inbox.

You'll start receiving the daily forecast at 8 AM.

×

10-Day Weather Forecast

Almanac

Astronomy

Feb. 22, 2017 Rise Set
Actual Time
Civil Twilight
Nautical Twilight
Astronomical Twilight
Moon
Length of Visible Light
Length of Day
Tomorrow will be .
, % of the Moon is Illuminated

Today's Extremes

State Highs State Lows

Community

WunderPhotos

Upload Photos

1,962,540 photos uploaded!

WunderBlog® & News

Nearby

Air Quality

  Air Quality AQ Index Pollutant
Not available.

Snow Depth

Station Depth Elevation

Earthquake Activity

City Distance Mag. Time & Date
Minimum magnitude displayed is 2.5.

Coastal Water Temperatures

Place Temperature

Stations

Nearby Weather Stations

Station Location Temp. Windchill Dew Point Humidity Wind Precip. Elev Updated Type
                   

Watches & Warnings

Dense Fog Advisory
Issued: 8:53 AM CST Feb. 22, 2017 – National Weather Service

... Dense fog advisory now in effect until noon CST today...

* visibility... one quarter mile or less at times, with the lowest
visibility in areas north of I-72. Steady improvement in
visibility is expected after 10 am.

* Impacts... areas of low visibility and rapid changes in
visibility will cause hazardous driving conditions.

Precautionary/preparedness actions...

A dense fog advisory means visibilities will frequently be
reduced to less than one quarter mile. If driving... slow down...
use your headlights... and leave plenty of distance ahead of you.



Geelhart